Test XHTML 1.0 Strict Page for WU-History Testing
Station Historical Data
 
Daily Summary for June 23, 2017 Units:  Both    English   Metric
« Previous Day
Next Day »
Daily Weekly Monthly Yearly Custom
  Current: High: Low: Average:
Temperature: 55.4 °F /  13 °C 55.9 °F /  13.3 °C 54.3 °F /  12.4 °C 55.1 °F /  12.8 °C
Dew Point: 54.6 °F /  12.6 °C 55.0 °F /  12.8 °C 54.2 °F /  12.3 °C 54.6 °F /  12.6 °C
Humidity: 97 % 100 % 95 % 98 %
Wind Speed: 3.9 mph /  6.3 km/h 8.1 mph /  13 km/h - 1.1 mph /  1.8 km/h
Wind Gust: 3.9 mph /  6.3 km/h 8.1 mph /  13 km/h - -
Wind:ESE - - SE
Pressure: 29.93 in /  1013.4 hPa 29.94 in /  1013.8 hPa 29.85 in /  1010.7 hPa -
Precipitation: 0.00 in /  0 mm      
Historical Graphs
 
 
Weather-Above Climate History
Untitled
Tabular Data for June 23, 2017
Time Temperature Dew Point Pressure Wind Wind Speed Wind Gust Humidity Rainfall Rate (Hourly) solar Conditions
00:03 54.5 °F /  12.5 °C 54.5 °F /  12.5 °C 29.85 in /  1010.7 hPa Calm     100 % 0.00 in /  0 mm 0.0 W/m2
00:08 54.5 °F /  12.5 °C 54.5 °F /  12.5 °C 29.85 in /  1010.7 hPa Calm     100 % 0.00 in /  0 mm 0.0 W/m2
00:13 54.5 °F /  12.5 °C 54.5 °F /  12.5 °C 29.85 in /  1010.7 hPa Calm     100 % 0.00 in /  0 mm 20.0 W/m2
00:18 54.3 °F /  12.4 °C 54.3 °F /  12.4 °C 29.85 in /  1010.7 hPa Calm     100 % 0.00 in /  0 mm 0.0 W/m2
00:23 54.5 °F /  12.5 °C 54.5 °F /  12.5 °C 29.85 in /  1010.7 hPa Calm     100 % 0.00 in /  0 mm 0.0 W/m2
00:29 54.5 °F /  12.5 °C 54.5 °F /  12.5 °C 29.85 in /  1010.7 hPa SE 5.0 mph /  8 km/h 5.0 mph /  8 km/h 100 % 0.00 in /  0 mm 20.0 W/m2
00:34 54.9 °F /  12.7 °C 54.9 °F /  12.7 °C 29.85 in /  1010.7 hPa Calm     100 % 0.00 in /  0 mm 0.0 W/m2
00:39 55.2 °F /  12.9 °C 54.9 °F /  12.7 °C 29.85 in /  1010.7 hPa Calm     99 % 0.00 in /  0 mm 0.0 W/m2
00:44 55.0 °F /  12.8 °C 55.0 °F /  12.8 °C 29.85 in /  1010.7 hPa SE 1.2 mph /  1.9 km/h 1.2 mph /  1.9 km/h 100 % 0.00 in /  0 mm 20.0 W/m2
00:49 54.9 °F /  12.7 °C 54.9 °F /  12.7 °C 29.85 in /  1010.7 hPa Calm     100 % 0.00 in /  0 mm 0.0 W/m2
00:54 54.9 °F /  12.7 °C 54.9 °F /  12.7 °C 29.85 in /  1010.7 hPa Calm     100 % 0.00 in /  0 mm 20.0 W/m2
00:59 54.9 °F /  12.7 °C 54.6 °F /  12.6 °C 29.85 in /  1010.7 hPa Calm     99 % 0.00 in /  0 mm 20.0 W/m2
01:04 54.9 °F /  12.7 °C 54.9 °F /  12.7 °C 29.85 in /  1010.7 hPa SE 1.2 mph /  1.9 km/h   100 % 0.00 in /  0 mm 20.0 W/m2 RA
01:09 55.0 °F /  12.8 °C 54.8 °F /  12.7 °C 29.85 in /  1010.7 hPa SE 4.6 mph /  7.4 km/h 4.6 mph /  7.4 km/h 99 % 0.00 in /  0 mm 20.0 W/m2 RA
01:14 55.2 °F /  12.9 °C 54.7 °F /  12.6 °C 29.85 in /  1010.7 hPa Calm     98 % 0.00 in /  0 mm 0.0 W/m2
01:19 55.2 °F /  12.9 °C 54.7 °F /  12.6 °C 29.85 in /  1010.7 hPa Calm     98 % 0.00 in /  0 mm 20.0 W/m2
01:24 55.0 °F /  12.8 °C 54.8 °F /  12.7 °C 29.85 in /  1010.7 hPa SW 2.3 mph /  3.7 km/h 2.3 mph /  3.7 km/h 99 % 0.00 in /  0 mm 0.0 W/m2
01:29 55.2 °F /  12.9 °C 54.7 °F /  12.6 °C 29.85 in /  1010.7 hPa Calm     98 % 0.00 in /  0 mm 0.0 W/m2
01:34 55.2 °F /  12.9 °C 54.7 °F /  12.6 °C 29.85 in /  1010.7 hPa Calm     98 % 0.00 in /  0 mm 20.0 W/m2
01:39 55.2 °F /  12.9 °C 54.7 °F /  12.6 °C 29.94 in /  1013.8 hPa Calm     98 % 0.00 in /  0 mm 0.0 W/m2
01:44 55.6 °F /  13.1 °C 54.5 °F /  12.5 °C 29.94 in /  1013.8 hPa Calm     96 % 0.00 in /  0 mm 0.0 W/m2
01:49 55.8 °F /  13.2 °C 54.6 °F /  12.6 °C 29.94 in /  1013.8 hPa ESE 1.2 mph /  1.9 km/h   96 % 0.00 in /  0 mm 0.0 W/m2
01:54 55.6 °F /  13.1 °C 54.5 °F /  12.5 °C 29.94 in /  1013.8 hPa Calm     96 % 0.00 in /  0 mm 0.0 W/m2
01:59 55.8 °F /  13.2 °C 54.6 °F /  12.6 °C 29.94 in /  1013.8 hPa ESE 8.1 mph /  13 km/h 8.1 mph /  13 km/h 96 % 0.00 in /  0 mm 20.0 W/m2
02:05 55.9 °F /  13.3 °C 54.5 °F /  12.5 °C 29.94 in /  1013.8 hPa Calm     95 % 0.00 in /  0 mm 0.0 W/m2
02:10 55.8 °F /  13.2 °C 54.3 °F /  12.4 °C 29.94 in /  1013.8 hPa Calm     95 % 0.00 in /  0 mm 0.0 W/m2
02:15 55.6 °F /  13.1 °C 54.2 °F /  12.3 °C 29.94 in /  1013.8 hPa ESE 2.6 mph /  4.2 km/h 2.6 mph /  4.2 km/h 95 % 0.00 in /  0 mm 20.0 W/m2
02:20 55.4 °F /  13 °C 54.3 °F /  12.4 °C 29.94 in /  1013.8 hPa ESE 1.2 mph /  1.9 km/h   96 % 0.00 in /  0 mm 0.0 W/m2
02:25 55.4 °F /  13 °C 54.3 °F /  12.4 °C 29.94 in /  1013.8 hPa Calm     96 % 0.00 in /  0 mm 20.0 W/m2
02:30 55.2 °F /  12.9 °C 54.4 °F /  12.4 °C 29.93 in /  1013.4 hPa ESE 3.0 mph /  4.8 km/h 3.0 mph /  4.8 km/h 97 % 0.00 in /  0 mm 20.0 W/m2
02:35 55.4 °F /  13 °C 54.6 °F /  12.6 °C 29.93 in /  1013.4 hPa ESE 3.9 mph /  6.3 km/h 3.9 mph /  6.3 km/h 97 % 0.00 in /  0 mm 0.0 W/m2
Wether-Above
Compliments of Weather Underground - 768 kb
Welcome to Weather-Above
Cheddleton weather station supplies various organisations with data from our weather station one of them is the weather Underground this information displayed here is coming from the weather Underground server 

If any information is used please acknowledge the source to www weather-above.com or weather Underground